Time;durP1;ratioP1;P1;durP2;ratioP2;P2;SDS_P1;SDS_P2;PMS_P1;PMS_P2;Temp;Humidity;BMP_temperature;BMP_pressure;BME280_temperature;BME280_humidity;BME280_pressure;Samples;Min_cycle;Max_cycle;Signal;HPM_P1;HPM_P2
2022/03/05 00:00:08;;;;;;;4.22;2.30;;;23.40;30.60;;;;;;5004173;28;20108;-44
2022/03/05 00:02:34;;;;;;;4.38;2.90;;;23.40;30.60;;;;;;5003602;28;20037;-44
2022/03/05 00:04:59;;;;;;;4.22;2.65;;;23.40;30.60;;;;;;5003475;28;20092;-44
2022/03/05 00:07:25;;;;;;;3.97;2.78;;;23.40;30.50;;;;;;5003868;28;20025;-44
2022/03/05 00:09:51;;;;;;;4.43;2.63;;;23.30;30.50;;;;;;5004142;28;20034;-44
2022/03/05 00:12:16;;;;;;;4.55;2.83;;;23.40;30.60;;;;;;5004089;28;20418;-44
2022/03/05 00:14:42;;;;;;;4.00;2.50;;;23.40;30.50;;;;;;5003564;28;20037;-43
2022/03/05 00:17:08;;;;;;;4.40;2.85;;;23.40;30.50;;;;;;5002873;28;20556;-44
2022/03/05 00:19:34;;;;;;;3.97;2.83;;;23.30;30.50;;;;;;5004039;28;20042;-44
2022/03/05 00:22:01;;;;;;;4.22;3.03;;;23.30;30.50;;;;;;5004105;28;20033;-44
2022/03/05 00:24:28;;;;;;;4.10;2.70;;;23.30;30.50;;;;;;5004452;28;20014;-44
2022/03/05 00:26:54;;;;;;;4.47;2.67;;;23.30;30.50;;;;;;5004429;28;20125;-44
2022/03/05 00:29:20;;;;;;;4.75;2.92;;;23.30;30.40;;;;;;5004584;28;20161;-44
2022/03/05 00:31:45;;;;;;;4.10;2.83;;;23.30;30.40;;;;;;5004395;28;20413;-44
2022/03/05 00:34:11;;;;;;;4.22;2.78;;;23.20;30.30;;;;;;5004071;28;20030;-43
2022/03/05 00:36:38;;;;;;;3.97;2.78;;;23.30;30.40;;;;;;5004854;28;20768;-43
2022/03/05 00:39:04;;;;;;;4.10;2.80;;;23.20;30.30;;;;;;5004501;28;20052;-44
2022/03/05 00:41:30;;;;;;;5.72;3.72;;;23.20;30.30;;;;;;5004747;28;20131;-44
2022/03/05 00:43:56;;;;;;;4.47;2.90;;;23.20;30.40;;;;;;5003870;28;20535;-44
2022/03/05 00:46:22;;;;;;;4.75;3.00;;;23.20;30.40;;;;;;5004730;28;20033;-44
2022/03/05 00:48:48;;;;;;;3.72;2.42;;;23.20;30.40;;;;;;5004806;28;20034;-44
2022/03/05 00:51:13;;;;;;;4.70;3.10;;;23.20;30.40;;;;;;5004178;28;20396;-44
2022/03/05 00:53:39;;;;;;;4.80;2.92;;;23.20;30.40;;;;;;5004092;28;20030;-44
2022/03/05 00:56:05;;;;;;;4.63;3.20;;;23.20;30.40;;;;;;5004382;28;20030;-44
2022/03/05 00:58:31;;;;;;;4.72;3.15;;;23.20;30.40;;;;;;5004123;28;20033;-44
2022/03/05 01:00:57;;;;;;;4.38;2.85;;;23.20;30.40;;;;;;5004503;28;20030;-44
2022/03/05 01:03:22;;;;;;;4.50;3.00;;;23.20;30.40;;;;;;5003901;28;20084;-44
2022/03/05 01:05:50;;;;;;;4.90;3.28;;;23.10;30.40;;;;;;5004398;28;20092;-44
2022/03/05 01:08:16;;;;;;;3.85;2.70;;;23.10;30.40;;;;;;5004513;28;20053;-44
2022/03/05 01:10:41;;;;;;;3.60;2.60;;;23.10;30.40;;;;;;5004167;28;20079;-44
2022/03/05 01:13:08;;;;;;;5.03;3.00;;;23.10;30.40;;;;;;5004138;28;20608;-44
2022/03/05 01:15:33;;;;;;;4.70;3.20;;;23.10;30.30;;;;;;5003599;28;20455;-43
2022/03/05 01:17:59;;;;;;;4.57;2.92;;;23.10;30.30;;;;;;5003938;28;20037;-44
2022/03/05 01:20:25;;;;;;;4.15;2.65;;;23.10;30.30;;;;;;5006395;28;20034;-44
2022/03/05 01:22:51;;;;;;;4.68;3.03;;;23.10;30.30;;;;;;5007429;28;20026;-44
2022/03/05 01:25:16;;;;;;;4.85;3.47;;;23.10;30.30;;;;;;5007776;28;20029;-44
2022/03/05 01:27:42;;;;;;;4.65;3.20;;;23.00;30.20;;;;;;5007477;28;20021;-44
2022/03/05 01:30:08;;;;;;;4.38;3.00;;;23.00;30.20;;;;;;5007696;28;20053;-44
2022/03/05 01:32:34;;;;;;;5.05;3.05;;;23.00;30.30;;;;;;5022280;28;20022;-45
2022/03/05 01:35:00;;;;;;;4.72;3.20;;;23.00;30.20;;;;;;5007151;28;20041;-44
2022/03/05 01:37:26;;;;;;;4.95;3.28;;;23.00;30.20;;;;;;5007292;28;20573;-43
2022/03/05 01:39:52;;;;;;;4.80;3.10;;;23.00;30.20;;;;;;5007685;28;20034;-44
2022/03/05 01:42:21;;;;;;;4.38;3.00;;;23.00;30.20;;;;;;5007548;28;20036;-44
2022/03/05 01:44:47;;;;;;;4.63;3.20;;;23.00;30.30;;;;;;5006850;28;20026;-43
2022/03/05 01:47:13;;;;;;;4.55;3.22;;;23.00;30.20;;;;;;5022540;28;20033;-44
2022/03/05 01:49:39;;;;;;;4.78;3.35;;;23.00;30.30;;;;;;5022537;28;20021;-45
2022/03/05 01:52:05;;;;;;;4.80;3.15;;;22.90;30.30;;;;;;5007162;28;20087;-44
2022/03/05 01:54:30;;;;;;;4.30;2.65;;;22.90;30.30;;;;;;5006666;28;20026;-43
2022/03/05 01:56:58;;;;;;;4.18;2.90;;;22.90;30.30;;;;;;5006934;28;20122;-43
2022/03/05 01:59:24;;;;;;;4.50;3.17;;;22.90;30.30;;;;;;5015254;28;20026;-43
2022/03/05 02:01:51;;;;;;;4.32;3.00;;;22.90;30.20;;;;;;5006186;28;20025;-43
2022/03/05 02:04:17;;;;;;;5.40;3.72;;;22.90;30.20;;;;;;5006725;28;20069;-43
2022/03/05 02:06:43;;;;;;;4.30;3.00;;;22.90;30.30;;;;;;5007190;28;20675;-44
2022/03/05 02:09:08;;;;;;;4.82;3.30;;;22.80;30.40;;;;;;5007026;28;20022;-44
2022/03/05 02:11:35;;;;;;;4.57;3.28;;;22.80;30.20;;;;;;5006584;28;20033;-43
2022/03/05 02:14:00;;;;;;;4.25;3.00;;;22.80;30.20;;;;;;5006479;28;20029;-46
2022/03/05 02:16:26;;;;;;;4.57;3.10;;;22.80;30.20;;;;;;5006417;28;20030;-46
2022/03/05 02:18:57;;;;;;;4.20;3.05;;;22.80;30.10;;;;;;5006562;28;20041;-46
2022/03/05 02:21:25;;;;;;;5.00;3.50;;;22.80;30.20;;;;;;5006784;28;20514;-46
2022/03/05 02:23:51;;;;;;;4.80;3.15;;;22.80;30.20;;;;;;5006669;28;20172;-45
2022/03/05 02:26:18;;;;;;;4.45;3.22;;;22.80;30.20;;;;;;5006458;28;20037;-45
2022/03/05 02:28:44;;;;;;;4.88;3.30;;;22.80;30.20;;;;;;5006551;28;20042;-44
2022/03/05 02:31:09;;;;;;;5.07;3.28;;;22.80;30.20;;;;;;5006219;28;20061;-46
2022/03/05 02:33:35;;;;;;;4.65;3.45;;;22.80;30.20;;;;;;5005980;28;20038;-46
2022/03/05 02:36:02;;;;;;;4.63;3.00;;;22.80;30.20;;;;;;5006196;28;20101;-46
2022/03/05 02:38:28;;;;;;;5.05;3.50;;;22.80;30.30;;;;;;5006747;28;20042;-45
2022/03/05 02:40:54;;;;;;;4.15;2.78;;;22.80;30.40;;;;;;5005911;28;20056;-45
2022/03/05 02:43:21;;;;;;;4.55;3.13;;;22.80;30.40;;;;;;5005655;28;20096;-45
2022/03/05 02:45:48;;;;;;;4.05;2.80;;;22.70;30.50;;;;;;5006368;28;20022;-45
2022/03/05 02:48:15;;;;;;;4.90;3.50;;;22.80;30.60;;;;;;5006088;28;20133;-46
2022/03/05 02:50:42;;;;;;;4.38;3.08;;;22.70;30.60;;;;;;5006173;28;20034;-45
2022/03/05 02:53:08;;;;;;;5.28;3.70;;;22.70;30.60;;;;;;5006149;28;20050;-46
2022/03/05 02:55:35;;;;;;;4.78;3.25;;;22.70;30.60;;;;;;5005448;28;20045;-45
2022/03/05 02:58:01;;;;;;;4.90;3.35;;;22.70;30.60;;;;;;5006016;28;20041;-45
2022/03/05 03:00:27;;;;;;;4.57;3.45;;;22.70;30.60;;;;;;5005461;28;20061;-45
2022/03/05 03:02:52;;;;;;;4.85;3.30;;;22.70;30.70;;;;;;5005469;28;20053;-46
2022/03/05 03:05:18;;;;;;;5.10;3.40;;;22.70;30.70;;;;;;5004357;28;20033;-46
2022/03/05 03:07:44;;;;;;;4.53;3.17;;;22.70;30.60;;;;;;5005408;28;20026;-45
2022/03/05 03:10:12;;;;;;;5.10;3.60;;;22.70;30.60;;;;;;5005026;28;20109;-44
2022/03/05 03:12:38;;;;;;;4.13;3.00;;;22.70;30.70;;;;;;5005357;28;20034;-45
2022/03/05 03:15:09;;;;;;;4.97;3.38;;;22.70;30.60;;;;;;5004861;28;20033;-45
2022/03/05 03:17:49;;;;;;;4.30;3.20;;;22.70;30.70;;;;;;5019913;28;20077;-45
2022/03/05 03:20:20;;;;;;;4.90;3.80;;;22.70;30.70;;;;;;5005380;28;20022;-46
2022/03/05 03:22:46;;;;;;;4.53;3.22;;;22.60;30.70;;;;;;5005265;28;20026;-46
2022/03/05 03:25:11;;;;;;;4.70;3.10;;;22.60;30.70;;;;;;5004001;28;20029;-45
2022/03/05 03:27:38;;;;;;;4.97;3.38;;;22.60;30.70;;;;;;5005570;28;20033;-45
2022/03/05 03:30:05;;;;;;;4.53;3.20;;;22.60;30.70;;;;;;5005401;28;20037;-46
2022/03/05 03:32:31;;;;;;;5.05;3.50;;;22.60;30.70;;;;;;5005182;28;20034;-46
2022/03/05 03:34:57;;;;;;;5.03;3.70;;;22.60;30.70;;;;;;5020777;28;20674;-45
2022/03/05 03:37:28;;;;;;;4.82;3.55;;;22.60;30.70;;;;;;5005108;28;20038;-45
2022/03/05 03:39:55;;;;;;;5.40;3.72;;;22.60;30.70;;;;;;5005512;28;20033;-46
2022/03/05 03:42:22;;;;;;;5.03;3.72;;;22.60;30.60;;;;;;5004504;28;20030;-45
2022/03/05 03:44:48;;;;;;;5.10;3.70;;;22.60;30.60;;;;;;5004851;28;20038;-45
2022/03/05 03:47:13;;;;;;;4.93;3.60;;;22.60;30.60;;;;;;5004644;28;20056;-45
2022/03/05 03:49:39;;;;;;;5.50;3.60;;;22.60;30.60;;;;;;5004731;28;20389;-45
2022/03/05 03:52:05;;;;;;;4.75;3.55;;;22.60;30.50;;;;;;5004649;28;20540;-45
2022/03/05 03:54:31;;;;;;;5.18;3.55;;;22.60;30.50;;;;;;5004457;28;20022;-46
2022/03/05 03:56:57;;;;;;;5.05;3.50;;;22.60;30.50;;;;;;5004843;28;20716;-45
2022/03/05 03:59:23;;;;;;;5.10;3.47;;;22.60;30.50;;;;;;5004822;28;20049;-46
2022/03/05 04:01:48;;;;;;;5.03;3.70;;;22.60;30.50;;;;;;5004914;28;20135;-45
2022/03/05 04:04:14;;;;;;;5.43;4.22;;;22.50;30.50;;;;;;5004424;28;20037;-46
2022/03/05 04:09:24;;;;;;;5.32;3.97;;;22.50;30.40;;;;;;5004535;28;20053;-45
2022/03/05 04:11:50;;;;;;;5.68;4.00;;;22.50;30.50;;;;;;5004373;28;20108;-46
2022/03/05 04:14:15;;;;;;;5.82;3.97;;;22.50;30.50;;;;;;5003982;28;20029;-45
2022/03/05 04:16:41;;;;;;;6.10;4.05;;;22.50;30.50;;;;;;5004479;28;20030;-45
2022/03/05 04:19:07;;;;;;;5.75;4.13;;;22.50;30.40;;;;;;4989125;28;20053;-45
2022/03/05 04:21:32;;;;;;;4.93;3.63;;;22.50;30.50;;;;;;5002003;28;20030;-45
2022/03/05 04:23:58;;;;;;;6.72;4.47;;;22.40;30.40;;;;;;5003823;28;20018;-46
2022/03/05 04:26:24;;;;;;;5.97;4.20;;;22.40;30.40;;;;;;5004359;28;20616;-45
2022/03/05 04:28:49;;;;;;;6.82;4.32;;;22.50;30.50;;;;;;5004555;28;20460;-46
2022/03/05 04:31:15;;;;;;;6.55;4.68;;;22.40;30.40;;;;;;5004169;28;20030;-45
2022/03/05 04:33:41;;;;;;;6.40;4.25;;;22.40;30.30;;;;;;5003938;28;20068;-45
2022/03/05 04:36:07;;;;;;;5.75;4.03;;;22.40;30.40;;;;;;5004509;28;20617;-44
2022/03/05 04:38:32;;;;;;;7.63;5.00;;;22.40;30.40;;;;;;5003929;28;20030;-45
2022/03/05 04:40:58;;;;;;;6.25;4.35;;;22.40;30.40;;;;;;5004459;28;20101;-45
2022/03/05 04:43:24;;;;;;;6.72;4.32;;;22.40;30.40;;;;;;5004053;28;20061;-45
2022/03/05 04:45:50;;;;;;;7.70;4.90;;;22.40;30.40;;;;;;5004213;28;20018;-45
2022/03/05 04:48:16;;;;;;;7.32;4.57;;;22.40;30.50;;;;;;5004601;28;20036;-45
2022/03/05 04:50:41;;;;;;;8.40;5.22;;;22.40;30.40;;;;;;5004364;28;20025;-46
2022/03/05 04:53:07;;;;;;;7.10;4.30;;;22.40;30.40;;;;;;5004611;28;20513;-45
2022/03/05 04:55:33;;;;;;;6.85;4.55;;;22.40;30.40;;;;;;5008353;28;20537;-45
2022/03/05 04:57:58;;;;;;;6.15;4.40;;;22.40;30.40;;;;;;5008605;28;20112;-44
2022/03/05 05:00:24;;;;;;;5.85;4.18;;;22.30;30.40;;;;;;5007906;28;20116;-46
2022/03/05 05:02:50;;;;;;;6.15;4.60;;;22.40;30.40;;;;;;5008055;28;20095;-45
2022/03/05 05:05:15;;;;;;;7.15;4.68;;;22.40;30.40;;;;;;5008281;28;20445;-44
2022/03/05 05:07:41;;;;;;;7.25;4.63;;;22.30;30.40;;;;;;5008049;28;20420;-45
2022/03/05 05:10:07;;;;;;;6.53;4.45;;;22.30;30.50;;;;;;5023513;28;20457;-45
2022/03/05 05:12:32;;;;;;;6.93;4.85;;;22.30;30.40;;;;;;5007838;28;20501;-46
2022/03/05 05:14:58;;;;;;;7.10;4.78;;;22.30;30.40;;;;;;5007468;28;20643;-47
2022/03/05 05:17:24;;;;;;;6.68;4.38;;;22.30;30.40;;;;;;5006815;28;20084;-45
2022/03/05 05:19:49;;;;;;;5.13;3.83;;;22.40;30.40;;;;;;5008133;28;20030;-45
2022/03/05 05:22:15;;;;;;;6.82;4.40;;;22.30;31.10;;;;;;5008302;28;20034;-45
2022/03/05 05:24:41;;;;;;;6.00;4.65;;;22.30;30.50;;;;;;5007835;28;20489;-45
2022/03/05 05:27:06;;;;;;;6.20;4.22;;;22.30;30.40;;;;;;5007851;28;20541;-46
2022/03/05 05:29:32;;;;;;;7.30;4.53;;;22.30;30.50;;;;;;5007760;28;20041;-45
2022/03/05 05:31:58;;;;;;;6.90;4.40;;;22.30;30.50;;;;;;5007892;28;20025;-44
2022/03/05 05:34:24;;;;;;;6.10;4.18;;;22.30;30.40;;;;;;5007736;28;20055;-45
2022/03/05 05:36:50;;;;;;;6.32;4.47;;;22.30;30.50;;;;;;5008134;28;20032;-46
2022/03/05 05:39:16;;;;;;;7.68;4.82;;;22.30;30.50;;;;;;5008157;28;20412;-45
2022/03/05 05:41:42;;;;;;;5.93;4.20;;;22.30;30.50;;;;;;5006371;28;20022;-46
2022/03/05 05:44:11;;;;;;;6.53;4.50;;;22.30;30.50;;;;;;5007155;28;20631;-44
2022/03/05 05:46:37;;;;;;;7.00;4.32;;;22.30;30.50;;;;;;5007423;28;20538;-45
2022/03/05 05:49:03;;;;;;;6.05;4.13;;;22.30;30.50;;;;;;5007872;28;20022;-46
2022/03/05 05:51:29;;;;;;;6.50;4.38;;;22.30;30.50;;;;;;5007790;28;20064;-46
2022/03/05 05:53:56;;;;;;;7.13;4.60;;;22.30;30.50;;;;;;5007110;28;20275;-46
2022/03/05 05:56:23;;;;;;;6.95;4.05;;;22.30;30.50;;;;;;5022608;28;20030;-45
2022/03/05 05:58:49;;;;;;;6.80;4.78;;;22.30;30.50;;;;;;5006542;28;20413;-45
2022/03/05 06:01:16;;;;;;;6.63;4.40;;;22.30;30.50;;;;;;5007156;28;20097;-46
2022/03/05 06:03:42;;;;;;;6.32;4.30;;;22.30;30.50;;;;;;5006710;28;20596;-46
2022/03/05 06:06:08;;;;;;;6.38;4.35;;;22.20;30.50;;;;;;5006198;28;20153;-45
2022/03/05 06:08:33;;;;;;;6.55;4.70;;;22.30;30.60;;;;;;5007598;28;20030;-45
2022/03/05 06:10:59;;;;;;;6.10;3.97;;;22.30;30.50;;;;;;5007548;28;20432;-46
2022/03/05 06:13:25;;;;;;;5.85;4.47;;;22.30;30.70;;;;;;5004784;28;20244;-44
2022/03/05 06:15:51;;;;;;;5.75;4.13;;;22.30;30.70;;;;;;5006949;28;20037;-46
2022/03/05 06:18:17;;;;;;;6.82;4.47;;;22.30;30.70;;;;;;5006487;28;20029;-45
2022/03/05 06:20:43;;;;;;;5.43;3.92;;;22.30;30.70;;;;;;5006441;28;20242;-44
2022/03/05 06:23:09;;;;;;;6.15;4.18;;;22.30;30.80;;;;;;5006573;28;20120;-45
2022/03/05 06:25:35;;;;;;;5.70;4.00;;;22.20;30.70;;;;;;5006052;28;20021;-45
2022/03/05 06:28:01;;;;;;;5.97;4.30;;;22.30;30.90;;;;;;5005775;28;20080;-45
2022/03/05 06:30:26;;;;;;;7.00;5.10;;;22.30;30.80;;;;;;5005234;28;20049;-45
2022/03/05 06:32:52;;;;;;;7.90;6.32;;;22.30;30.60;;;;;;5003962;28;20022;-44
2022/03/05 06:35:18;;;;;;;8.60;6.80;;;22.30;30.30;;;;;;5004540;28;20551;-45
2022/03/05 06:37:45;;;;;;;8.63;6.70;;;22.30;29.80;;;;;;5005901;28;20068;-45
2022/03/05 06:40:11;;;;;;;7.95;6.05;;;22.30;29.80;;;;;;5005530;28;20034;-46
2022/03/05 06:42:41;;;;;;;7.70;6.28;;;22.40;29.80;;;;;;5004893;28;20100;-45
2022/03/05 06:45:08;;;;;;;7.35;5.78;;;22.40;29.90;;;;;;5005451;28;20046;-45
2022/03/05 06:47:34;;;;;;;8.13;6.32;;;22.50;30.00;;;;;;5006305;28;20044;-46
2022/03/05 06:50:00;;;;;;;7.80;5.97;;;22.50;29.90;;;;;;5005738;28;20392;-45
2022/03/05 06:52:26;;;;;;;7.32;5.70;;;22.60;30.00;;;;;;5004435;28;20032;-45
2022/03/05 06:54:51;;;;;;;6.90;5.32;;;22.70;30.00;;;;;;5004926;28;20666;-45
2022/03/05 06:57:17;;;;;;;7.03;5.40;;;22.80;30.00;;;;;;5003251;28;20030;-45
2022/03/05 06:59:43;;;;;;;6.97;5.57;;;22.90;30.10;;;;;;5004653;28;20052;-45
2022/03/05 07:02:09;;;;;;;6.75;5.35;;;23.00;30.00;;;;;;5005039;28;20053;-46
2022/03/05 07:04:34;;;;;;;6.32;5.20;;;23.00;30.10;;;;;;5004423;28;20061;-46
2022/03/05 07:07:00;;;;;;;8.60;5.05;;;23.10;30.40;;;;;;5003945;28;20109;-47
2022/03/05 07:09:26;;;;;;;7.25;5.20;;;23.20;30.60;;;;;;5003112;28;20500;-46
2022/03/05 07:11:51;;;;;;;7.47;5.43;;;23.30;30.80;;;;;;5004342;28;20026;-46
2022/03/05 07:14:17;;;;;;;7.65;5.22;;;23.40;31.20;;;;;;4999431;28;20095;-46
2022/03/05 07:16:43;;;;;;;6.70;4.30;;;23.40;31.40;;;;;;5002642;28;20029;-45
2022/03/05 07:19:08;;;;;;;7.50;5.00;;;23.50;31.70;;;;;;5004832;28;20132;-46
2022/03/05 07:21:34;;;;;;;6.72;4.68;;;23.60;31.70;;;;;;5004434;28;20489;-46
2022/03/05 07:24:00;;;;;;;5.97;4.40;;;23.60;31.60;;;;;;5004383;28;20650;-46
2022/03/05 07:26:26;;;;;;;6.80;5.00;;;23.70;31.60;;;;;;5009072;28;20058;-46
2022/03/05 07:28:52;;;;;;;7.00;4.80;;;23.80;31.70;;;;;;5004732;28;20034;-46
2022/03/05 07:31:18;;;;;;;7.38;4.50;;;23.80;31.70;;;;;;5004674;28;20034;-46
2022/03/05 07:33:43;;;;;;;7.43;4.38;;;23.90;31.50;;;;;;5004643;28;20037;-46
2022/03/05 07:36:09;;;;;;;5.95;3.92;;;24.00;31.30;;;;;;5001990;28;20045;-46
2022/03/05 07:38:35;;;;;;;7.53;5.00;;;24.10;31.20;;;;;;5004598;28;20119;-46
2022/03/05 07:41:01;;;;;;;7.53;4.05;;;24.10;31.10;;;;;;5003684;28;20030;-46
2022/03/05 07:43:27;;;;;;;6.60;4.38;;;24.30;30.90;;;;;;5003778;28;20040;-46
2022/03/05 07:45:53;;;;;;;5.95;4.10;;;24.30;30.80;;;;;;5004084;28;20373;-46
2022/03/05 07:48:22;;;;;;;7.20;4.28;;;24.30;30.70;;;;;;5004108;28;20025;-46
2022/03/05 07:50:49;;;;;;;7.43;4.70;;;24.40;30.50;;;;;;5000551;28;20538;-47
2022/03/05 07:53:15;;;;;;;7.55;5.20;;;24.50;30.60;;;;;;5000286;28;20168;-46
2022/03/05 07:55:41;;;;;;;6.43;4.22;;;24.50;30.60;;;;;;5004718;28;20029;-46
2022/03/05 07:58:08;;;;;;;6.22;3.95;;;24.60;30.50;;;;;;5004301;28;20040;-46
2022/03/05 08:00:34;;;;;;;6.15;4.03;;;24.60;30.40;;;;;;5004696;28;20037;-45
2022/03/05 08:02:59;;;;;;;6.13;4.28;;;24.70;30.40;;;;;;5003754;28;20167;-46
2022/03/05 08:05:25;;;;;;;6.25;4.13;;;24.70;30.30;;;;;;5002668;28;20093;-46
2022/03/05 08:07:54;;;;;;;5.05;3.90;;;24.70;30.20;;;;;;5004646;28;20040;-46
2022/03/05 08:10:20;;;;;;;5.82;3.80;;;24.80;30.10;;;;;;5003553;28;20111;-46
2022/03/05 08:12:46;;;;;;;5.43;3.75;;;24.80;30.00;;;;;;5000227;28;20038;-45
2022/03/05 08:15:12;;;;;;;6.07;4.40;;;24.90;30.00;;;;;;5003431;28;20556;-45
2022/03/05 08:17:54;;;;;;;7.97;4.30;;;24.90;30.00;;;;;;5003936;28;20121;-46
2022/03/05 08:20:20;;;;;;;6.03;4.05;;;24.90;29.90;;;;;;5004162;28;20108;-46
2022/03/05 08:22:46;;;;;;;5.20;3.95;;;25.00;29.80;;;;;;5004364;28;20498;-46
2022/03/05 08:25:12;;;;;;;4.97;3.88;;;24.90;29.80;;;;;;5003961;28;20026;-46
2022/03/05 08:27:39;;;;;;;5.15;3.85;;;25.00;29.80;;;;;;5004309;28;20054;-46
2022/03/05 08:30:06;;;;;;;5.80;4.20;;;25.00;29.70;;;;;;5009689;28;20025;-45
2022/03/05 08:32:31;;;;;;;5.45;3.92;;;25.00;29.60;;;;;;5010086;28;20673;-46
2022/03/05 08:34:57;;;;;;;4.78;3.55;;;25.00;29.50;;;;;;5010559;28;20026;-45
2022/03/05 08:37:23;;;;;;;5.00;3.83;;;25.10;29.50;;;;;;5008365;28;20091;-46
2022/03/05 08:39:49;;;;;;;5.50;3.92;;;25.00;29.40;;;;;;5010209;28;20449;-45
2022/03/05 08:42:14;;;;;;;6.18;4.35;;;25.10;29.40;;;;;;5016816;28;20041;-45
2022/03/05 08:44:40;;;;;;;5.32;3.55;;;25.10;29.30;;;;;;5010082;28;20112;-46
2022/03/05 08:47:06;;;;;;;5.63;4.18;;;25.20;29.30;;;;;;5009897;28;20105;-46
2022/03/05 08:49:32;;;;;;;5.95;4.07;;;25.20;29.30;;;;;;5010714;28;20496;-45
2022/03/05 08:51:58;;;;;;;4.88;3.75;;;25.20;29.30;;;;;;5010415;28;20105;-45
2022/03/05 08:54:25;;;;;;;4.93;3.45;;;25.20;29.20;;;;;;5019318;28;20189;-46
2022/03/05 08:56:51;;;;;;;5.25;3.78;;;25.20;29.30;;;;;;5023461;28;20041;-46
2022/03/05 08:59:17;;;;;;;5.45;3.63;;;25.20;29.40;;;;;;5022046;28;20668;-45
2022/03/05 09:01:43;;;;;;;5.97;3.67;;;25.20;29.40;;;;;;5024677;28;20039;-46
2022/03/05 09:04:08;;;;;;;4.85;3.70;;;25.20;29.50;;;;;;5027779;28;20033;-45
2022/03/05 09:06:35;;;;;;;5.30;3.65;;;25.20;29.50;;;;;;5009150;28;20069;-45
2022/03/05 09:09:00;;;;;;;5.55;3.45;;;25.30;30.00;;;;;;5003838;28;20022;-44
2022/03/05 09:11:26;;;;;;;7.00;4.07;;;25.30;30.30;;;;;;5008916;28;20068;-44
2022/03/05 09:13:52;;;;;;;5.82;4.00;;;25.30;30.30;;;;;;5008590;28;20056;-44
2022/03/05 09:16:18;;;;;;;5.35;4.40;;;25.30;30.60;;;;;;5007667;28;20041;-44
2022/03/05 09:18:44;;;;;;;5.85;4.25;;;25.40;30.50;;;;;;5008953;28;20041;-44
2022/03/05 09:21:10;;;;;;;6.40;4.10;;;25.40;30.50;;;;;;5009609;28;20392;-44
2022/03/05 09:23:36;;;;;;;4.85;3.85;;;25.40;30.30;;;;;;5008695;28;20028;-46
2022/03/05 09:26:02;;;;;;;5.47;4.05;;;25.40;30.20;;;;;;5009333;28;20022;-45
2022/03/05 09:28:28;;;;;;;5.53;3.85;;;25.40;30.10;;;;;;5009519;28;20029;-46
2022/03/05 09:30:54;;;;;;;5.15;3.97;;;25.40;30.10;;;;;;5008819;28;20041;-46
2022/03/05 09:33:22;;;;;;;6.15;4.38;;;25.40;30.20;;;;;;5009155;28;20029;-46
2022/03/05 09:35:49;;;;;;;7.10;5.05;;;25.40;30.10;;;;;;5009690;28;20095;-45
2022/03/05 09:38:15;;;;;;;5.60;4.05;;;25.40;30.00;;;;;;5010330;28;20041;-45
2022/03/05 09:40:41;;;;;;;6.97;4.45;;;25.40;30.10;;;;;;5006673;28;20033;-46
2022/03/05 09:43:07;;;;;;;6.25;4.88;;;25.40;30.10;;;;;;5006961;28;20040;-46
2022/03/05 09:45:34;;;;;;;9.00;4.45;;;25.40;30.10;;;;;;5002909;28;20440;-45
2022/03/05 09:48:00;;;;;;;6.43;4.70;;;25.40;30.10;;;;;;4987323;28;20050;-45
2022/03/05 09:50:32;;;;;;;7.63;4.53;;;25.40;30.10;;;;;;4994165;28;20036;-46
2022/03/05 09:53:01;;;;;;;7.50;4.80;;;25.40;30.00;;;;;;5005808;28;20049;-45
2022/03/05 09:55:27;;;;;;;7.10;4.78;;;25.40;30.00;;;;;;5006373;28;20105;-46
2022/03/05 09:57:53;;;;;;;8.07;4.93;;;25.40;30.00;;;;;;5006595;28;20124;-46
2022/03/05 10:00:19;;;;;;;8.52;5.47;;;25.40;30.00;;;;;;5006196;28;20109;-45
2022/03/05 10:02:48;;;;;;;7.07;4.85;;;25.40;30.00;;;;;;5009864;28;20405;-45
2022/03/05 10:05:13;;;;;;;9.20;6.25;;;25.40;30.00;;;;;;5026275;28;20026;-46
2022/03/05 10:07:57;;;;;;;6.93;4.75;;;25.40;30.00;;;;;;5024859;28;20817;-46
2022/03/05 10:10:22;;;;;;;11.10;6.30;;;25.40;30.10;;;;;;5026701;28;20033;-46
2022/03/05 10:12:48;;;;;;;8.90;5.55;;;25.40;30.00;;;;;;5025780;28;20025;-47
2022/03/05 10:15:20;;;;;;;7.70;4.80;;;25.40;30.10;;;;;;5017406;28;20116;-45
2022/03/05 10:17:50;;;;;;;8.88;5.40;;;25.40;30.10;;;;;;5006180;28;20397;-46
2022/03/05 10:20:16;;;;;;;9.48;5.60;;;25.40;30.10;;;;;;5006317;28;20490;-46
2022/03/05 10:23:06;;;;;;;8.52;5.15;;;25.40;30.10;;;;;;5005375;28;20037;-46
2022/03/05 10:25:39;;;;;;;8.80;5.50;;;25.40;30.10;;;;;;5003001;28;20045;-45
2022/03/05 10:28:13;;;;;;;9.15;5.65;;;25.40;30.10;;;;;;5007103;28;20042;-46
2022/03/05 10:30:49;;;;;;;8.18;5.28;;;25.40;30.10;;;;;;5005541;28;20026;-46
2022/03/05 10:33:31;;;;;;;8.38;5.35;;;25.40;30.10;;;;;;5006226;28;20092;-46
2022/03/05 10:36:24;;;;;;;8.88;5.72;;;25.40;30.10;;;;;;5006118;28;20029;-46
2022/03/05 10:38:51;;;;;;;9.73;4.95;;;25.40;30.10;;;;;;5005898;28;20034;-46
2022/03/05 10:41:32;;;;;;;10.48;5.68;;;25.40;30.10;;;;;;5005566;28;20030;-45
2022/03/05 10:44:08;;;;;;;8.00;5.35;;;25.40;30.00;;;;;;5004780;28;20691;-45
2022/03/05 10:46:42;;;;;;;7.00;4.65;;;25.40;30.00;;;;;;4992385;28;20120;-46
2022/03/05 10:49:10;;;;;;;8.05;5.18;;;25.40;30.00;;;;;;4986361;28;20470;-46
2022/03/05 10:51:37;;;;;;;7.20;4.90;;;25.40;30.00;;;;;;5003515;28;20048;-47
2022/03/05 10:54:03;;;;;;;7.82;5.65;;;25.40;29.90;;;;;;5004863;28;20037;-46
2022/03/05 10:56:32;;;;;;;7.55;4.93;;;25.40;30.50;;;;;;5004423;28;20030;-46
2022/03/05 10:59:10;;;;;;;8.45;5.15;;;25.40;30.00;;;;;;5003605;28;20053;-46
2022/03/05 11:01:41;;;;;;;7.75;5.00;;;25.40;30.00;;;;;;5002661;28;20037;-45
2022/03/05 11:04:08;;;;;;;8.13;5.40;;;25.40;30.00;;;;;;5006991;28;20026;-46
2022/03/05 11:06:37;;;;;;;9.27;5.50;;;25.50;30.00;;;;;;5006273;28;20033;-45
2022/03/05 11:09:04;;;;;;;9.88;6.00;;;25.40;30.30;;;;;;5006202;28;20306;-46
2022/03/05 11:11:30;;;;;;;11.38;6.70;;;25.50;30.50;;;;;;5005025;28;20033;-47
2022/03/05 11:13:56;;;;;;;13.55;7.65;;;25.50;30.90;;;;;;5004504;28;20728;-46
2022/03/05 11:16:23;;;;;;;13.40;8.38;;;25.50;31.40;;;;;;5003534;28;20057;-46
2022/03/05 11:18:49;;;;;;;12.90;8.32;;;25.60;31.50;;;;;;5018746;28;20034;-45
2022/03/05 11:21:16;;;;;;;15.48;9.50;;;25.60;31.70;;;;;;5003143;28;20378;-45
2022/03/05 11:23:42;;;;;;;15.35;10.05;;;25.60;31.40;;;;;;5002538;28;20479;-45
2022/03/05 11:26:08;;;;;;;13.95;8.95;;;25.60;31.30;;;;;;5005043;28;20634;-44
2022/03/05 11:28:54;;;;;;;13.32;8.27;;;25.60;31.00;;;;;;5005666;28;20026;-44
2022/03/05 11:31:22;;;;;;;14.50;8.63;;;25.60;31.50;;;;;;5003165;28;20038;-44
2022/03/05 11:33:49;;;;;;;18.10;9.80;;;25.60;30.90;;;;;;5001973;28;20025;-44
2022/03/05 11:36:35;;;;;;;14.00;10.57;;;25.60;31.00;;;;;;5002797;28;20087;-45
2022/03/05 11:39:20;;;;;;;13.10;8.82;;;25.60;31.90;;;;;;4997896;28;20038;-44
2022/03/05 11:41:51;;;;;;;11.65;8.10;;;25.60;31.90;;;;;;5002403;28;20051;-44
2022/03/05 11:44:18;;;;;;;10.35;8.07;;;25.60;31.50;;;;;;5003355;28;20033;-45
2022/03/05 11:46:44;;;;;;;11.02;7.28;;;25.60;31.40;;;;;;5003086;28;20026;-44
2022/03/05 11:49:13;;;;;;;12.63;7.75;;;25.60;31.20;;;;;;5003813;28;20041;-44
2022/03/05 11:51:57;;;;;;;11.27;7.28;;;25.60;31.10;;;;;;5003366;28;20026;-45
2022/03/05 11:54:24;;;;;;;10.07;7.03;;;25.60;31.10;;;;;;5002965;28;20037;-45
2022/03/05 11:57:08;;;;;;;11.43;7.47;;;25.60;30.90;;;;;;5002541;28;20444;-44
2022/03/05 11:59:36;;;;;;;9.30;6.85;;;25.60;30.90;;;;;;5002603;28;20026;-45
2022/03/05 12:02:02;;;;;;;9.05;6.35;;;25.60;30.80;;;;;;5002261;28;20030;-44
2022/03/05 12:04:29;;;;;;;10.18;6.05;;;25.60;31.00;;;;;;5003126;28;20080;-45
2022/03/05 12:06:59;;;;;;;9.43;6.13;;;25.60;30.80;;;;;;5003883;28;20824;-44
2022/03/05 12:09:33;;;;;;;9.05;6.20;;;25.60;30.70;;;;;;5004042;28;20030;-45
2022/03/05 12:11:59;;;;;;;8.32;5.78;;;25.60;30.70;;;;;;5003770;28;20018;-47
2022/03/05 12:15:07;;;;;;;8.02;5.65;;;25.60;30.70;;;;;;5002852;28;20052;-44
2022/03/05 12:17:34;;;;;;;6.43;5.00;;;25.60;30.70;;;;;;4983613;28;20126;-45
2022/03/05 12:20:00;;;;;;;7.22;4.95;;;25.60;30.70;;;;;;4988280;28;20104;-44
2022/03/05 12:22:26;;;;;;;8.32;5.25;;;25.60;30.60;;;;;;5003272;28;20065;-45
2022/03/05 12:24:52;;;;;;;9.57;6.15;;;25.60;30.50;;;;;;5003120;28;20050;-44
2022/03/05 12:27:18;;;;;;;7.65;4.80;;;25.60;30.50;;;;;;5003718;28;20226;-45
2022/03/05 12:29:52;;;;;;;7.20;5.00;;;25.60;30.50;;;;;;5003339;28;20033;-47
2022/03/05 12:32:20;;;;;;;6.97;4.88;;;25.50;30.50;;;;;;5004011;28;20057;-45
2022/03/05 12:34:46;;;;;;;6.35;4.50;;;25.50;30.50;;;;;;5003159;28;20457;-44
2022/03/05 12:37:12;;;;;;;7.38;5.68;;;25.50;30.50;;;;;;5003521;28;20095;-44
2022/03/05 12:39:45;;;;;;;7.75;5.03;;;25.40;30.50;;;;;;5003227;28;20041;-45
2022/03/05 12:42:11;;;;;;;7.35;4.95;;;25.50;30.50;;;;;;5002891;28;20022;-44
2022/03/05 12:44:39;;;;;;;7.03;4.85;;;25.50;30.60;;;;;;5002600;28;20034;-44
2022/03/05 12:47:06;;;;;;;8.15;4.50;;;25.40;30.80;;;;;;5017383;28;20034;-44